createdAt,value
2022-08-02T00:00:18.932Z,101181.13
2022-08-02T00:02:50.792Z,101180.88
2022-08-02T00:05:22.305Z,101183.88
2022-08-02T00:07:54.182Z,101173.06
2022-08-02T00:10:25.748Z,101182.53
2022-08-02T00:12:57.614Z,101188.19
2022-08-02T00:15:29.138Z,101184.41
2022-08-02T00:18:01.005Z,101185.50
2022-08-02T00:20:32.627Z,101188.22
2022-08-02T00:23:04.354Z,101194.97
2022-08-02T00:25:35.911Z,101189.81
2022-08-02T00:28:28.351Z,101192.81
2022-08-02T00:31:00.293Z,101188.22
2022-08-02T00:34:26.389Z,101190.38
2022-08-02T00:36:23.722Z,101176.25
2022-08-02T00:38:55.239Z,101177.63
2022-08-02T00:41:27.063Z,101176.84
2022-08-02T00:43:58.595Z,101184.38
2022-08-02T00:46:30.495Z,101183.84
2022-08-02T00:49:02.192Z,101180.31
2022-08-02T00:51:34.145Z,101176.53
2022-08-02T00:54:05.672Z,101181.69
2022-08-02T00:56:37.554Z,101180.31
2022-08-02T00:59:09.062Z,101186.53
2022-08-02T01:01:55.909Z,101195.72
2022-08-02T01:04:30.077Z,101194.91
2022-08-02T01:07:13.406Z,101200.59
2022-08-02T01:09:45.402Z,101189.25
2022-08-02T01:12:17.897Z,101192.22
2022-08-02T01:14:49.500Z,101198.16
2022-08-02T01:17:21.480Z,101198.69
2022-08-02T01:19:52.995Z,101197.34
2022-08-02T01:22:58.072Z,101194.63
2022-08-02T01:25:16.537Z,101187.56
2022-08-02T01:27:48.598Z,101192.16
2022-08-02T01:30:20.128Z,101198.91
2022-08-02T01:32:52.018Z,101205.66
2022-08-02T01:35:23.589Z,101202.13
2022-08-02T01:37:55.408Z,101205.94
2022-08-02T01:40:26.928Z,101210.78
2022-08-02T01:42:59.125Z,101210.78
2022-08-02T01:45:30.702Z,101213.75
2022-08-02T01:48:02.609Z,101211.31
2022-08-02T01:50:34.144Z,101211.06
2022-08-02T01:53:06.040Z,101211.06
2022-08-02T01:55:56.964Z,101209.97
2022-08-02T01:58:30.142Z,101216.72
2022-08-02T02:01:02.053Z,101207.53
2022-08-02T02:03:33.874Z,101203.75
2022-08-02T02:06:22.541Z,101201.03
2022-08-02T02:08:54.080Z,101201.84
2022-08-02T02:12:09.351Z,101205.34
2022-08-02T02:14:17.685Z,101202.09
2022-08-02T02:16:49.801Z,101205.59
2022-08-02T02:19:22.729Z,101201.25
2022-08-02T02:21:54.905Z,101196.94
2022-08-02T02:24:28.864Z,101197.19
2022-08-02T02:27:02.458Z,101190.97
2022-08-02T02:29:33.987Z,101194.50
2022-08-02T02:32:06.163Z,101199.59
2022-08-02T02:34:37.803Z,101194.97
2022-08-02T02:37:09.395Z,101197.41
2022-08-02T02:39:40.915Z,101194.97
2022-08-02T02:42:13.188Z,101194.44
2022-08-02T02:44:45.176Z,101194.69
2022-08-02T02:47:16.995Z,101199.84
2022-08-02T02:49:49.006Z,101199.28
2022-08-02T02:52:20.979Z,101194.69
2022-08-02T02:54:52.564Z,101197.13
2022-08-02T02:57:24.090Z,101195.78
2022-08-02T02:59:55.599Z,101208.47
2022-08-02T03:02:27.612Z,101213.31
2022-08-02T03:05:01.507Z,101217.66
2022-08-02T03:07:33.493Z,101218.72
2022-08-02T03:10:04.993Z,101233.03
2022-08-02T03:12:37.050Z,101231.44
2022-08-02T03:15:09.284Z,101234.94
2022-08-02T03:17:41.142Z,101232.81
2022-08-02T03:20:12.670Z,101233.91
2022-08-02T03:22:44.982Z,101232.28
2022-08-02T03:25:16.504Z,101236.59
2022-08-02T03:27:48.463Z,101229.56
2022-08-02T03:30:20.008Z,101237.66
2022-08-02T03:32:52.091Z,101239.78
2022-08-02T03:35:24.461Z,101243.53
2022-08-02T03:37:56.846Z,101245.41
2022-08-02T03:40:28.342Z,101248.41
2022-08-02T03:43:00.166Z,101248.16
2022-08-02T03:45:31.684Z,101251.94
2022-08-02T03:48:03.335Z,101252.22
2022-08-02T03:50:54.859Z,101252.19
2022-08-02T03:53:26.727Z,101254.06
2022-08-02T03:55:58.219Z,101244.41
2022-08-02T03:58:30.020Z,101239.56
2022-08-02T04:01:01.588Z,101249.56
2022-08-02T04:03:33.604Z,101260.09
2022-08-02T04:06:05.190Z,101255.50
2022-08-02T04:08:38.734Z,101262.78
2022-08-02T04:11:29.674Z,101263.63
2022-08-02T04:14:01.180Z,101263.94
2022-08-02T04:16:33.046Z,101266.66
2022-08-02T04:19:04.640Z,101266.63
2022-08-02T04:21:50.187Z,101271.16
2022-08-02T04:24:24.727Z,101273.28
2022-08-02T04:26:57.943Z,101266.81
2022-08-02T04:29:38.444Z,101267.66
2022-08-02T04:32:10.526Z,101277.06
2022-08-02T04:34:47.459Z,101280.34
2022-08-02T04:37:26.307Z,101284.16
2022-08-02T04:39:57.804Z,101276.63
2022-08-02T04:42:29.640Z,101276.75
2022-08-02T04:45:03.000Z,101285.72
2022-08-02T04:48:02.212Z,101288.75
2022-08-02T04:50:26.361Z,101288.53
2022-08-02T04:52:58.219Z,101288.31
2022-08-02T04:55:30.054Z,101297.47
2022-08-02T04:58:06.701Z,101289.91
2022-08-02T05:00:45.264Z,101299.69
2022-08-02T05:03:17.145Z,101289.97
2022-08-02T05:05:48.714Z,101289.69
2022-08-02T05:08:20.654Z,101291.31
2022-08-02T05:10:52.239Z,101300.53
2022-08-02T05:13:24.102Z,101292.94
2022-08-02T05:15:55.592Z,101290.53
2022-08-02T05:18:28.779Z,101293.28
2022-08-02T05:21:00.284Z,101290.84
2022-08-02T05:23:32.066Z,101293.84
2022-08-02T05:26:04.871Z,101297.09
2022-08-02T05:28:36.668Z,101288.97
2022-08-02T05:31:13.407Z,101296.56
2022-08-02T05:33:45.428Z,101289.75
2022-08-02T05:36:16.928Z,101291.09
2022-08-02T05:38:51.237Z,101295.97
2022-08-02T05:41:22.730Z,101306.28
2022-08-02T05:43:54.569Z,101309.56
2022-08-02T05:46:26.078Z,101313.34
2022-08-02T05:48:57.978Z,101319.03
2022-08-02T05:51:29.595Z,101328.81
2022-08-02T05:54:04.307Z,101327.44
2022-08-02T05:56:36.361Z,101331.19
2022-08-02T05:59:08.240Z,101332.22
2022-08-02T06:01:42.972Z,101328.16
2022-08-02T06:04:14.890Z,101330.28
2022-08-02T06:06:46.396Z,101337.63
2022-08-02T06:09:25.174Z,101339.19
2022-08-02T06:12:11.503Z,101341.00
2022-08-02T06:14:43.521Z,101335.94
2022-08-02T06:17:20.495Z,101334.78
2022-08-02T06:19:52.829Z,101328.19
2022-08-02T06:22:31.969Z,101330.97
2022-08-02T06:25:48.157Z,101331.03
2022-08-02T06:28:04.648Z,101331.81
2022-08-02T06:30:43.132Z,101338.13
2022-08-02T06:33:15.128Z,101320.44
2022-08-02T06:35:46.728Z,101326.94
2022-08-02T06:38:19.227Z,101325.94
2022-08-02T06:40:50.756Z,101326.41
2022-08-02T06:43:22.606Z,101324.66
2022-08-02T06:45:54.136Z,101327.97
2022-08-02T06:48:26.133Z,101328.91
2022-08-02T06:50:57.625Z,101332.53
2022-08-02T06:53:29.449Z,101334.41
2022-08-02T06:56:00.944Z,101332.50
2022-08-02T06:58:32.752Z,101325.53
2022-08-02T07:01:07.175Z,101323.94
2022-08-02T07:03:39.097Z,101321.03
2022-08-02T07:06:11.682Z,101307.75
2022-08-02T07:08:54.787Z,101322.47
2022-08-02T07:11:35.035Z,101315.63
2022-08-02T07:14:06.935Z,101313.22
2022-08-02T07:16:38.427Z,101299.38
2022-08-02T07:19:10.279Z,101302.09
2022-08-02T07:21:57.577Z,101304.47
2022-08-02T07:24:32.717Z,101305.00
2022-08-02T07:27:12.561Z,101306.72
2022-08-02T07:29:46.277Z,101297.75
2022-08-02T07:32:19.278Z,101313.34
2022-08-02T07:34:53.095Z,101310.28
2022-08-02T07:37:53.814Z,101310.69
2022-08-02T07:40:19.816Z,101306.44
2022-08-02T07:42:56.416Z,101303.75
2022-08-02T07:45:31.153Z,101306.06
2022-08-02T07:48:03.173Z,101315.25
2022-08-02T07:50:34.681Z,101301.09
2022-08-02T07:53:06.556Z,101296.78
2022-08-02T07:55:40.437Z,101295.56
2022-08-02T07:58:13.623Z,101292.34
2022-08-02T08:00:45.409Z,101296.75
2022-08-02T08:03:17.219Z,101291.22
2022-08-02T08:05:48.768Z,101284.69
2022-08-02T08:08:20.569Z,101299.09
2022-08-02T08:10:52.121Z,101299.00
2022-08-02T08:13:23.944Z,101300.19
2022-08-02T08:15:55.498Z,101296.13
2022-08-02T08:18:27.399Z,101286.03
2022-08-02T08:20:58.900Z,101285.91
2022-08-02T08:23:32.662Z,101287.97
2022-08-02T08:26:04.172Z,101283.63
2022-08-02T08:28:35.997Z,101287.63
2022-08-02T08:31:07.512Z,101275.34
2022-08-02T08:33:39.331Z,101279.78
2022-08-02T08:36:10.834Z,101270.13
2022-08-02T08:38:42.805Z,101272.84
2022-08-02T08:41:14.313Z,101263.69
2022-08-02T08:43:50.089Z,101274.41
2022-08-02T08:46:25.119Z,101276.47
2022-08-02T08:48:57.112Z,101260.31
2022-08-02T08:51:28.622Z,101261.50
2022-08-02T08:54:04.283Z,101268.31
2022-08-02T08:56:35.845Z,101267.63
2022-08-02T08:59:07.705Z,101276.75
2022-08-02T09:01:50.239Z,101275.03
2022-08-02T09:04:22.820Z,101275.22
2022-08-02T09:06:55.582Z,101276.38
2022-08-02T09:09:27.476Z,101276.44
2022-08-02T09:11:58.976Z,101277.47
2022-08-02T09:14:32.948Z,101276.97
2022-08-02T09:17:04.532Z,101264.59
2022-08-02T09:19:37.313Z,101264.09
2022-08-02T09:22:09.208Z,101274.09
2022-08-02T09:24:41.408Z,101275.97
2022-08-02T09:27:13.044Z,101268.75
2022-08-02T09:30:11.538Z,101263.25
2022-08-02T09:32:36.263Z,101257.81
2022-08-02T09:35:08.199Z,101253.31
2022-08-02T09:37:39.694Z,101249.47
2022-08-02T09:40:12.515Z,101252.69
2022-08-02T09:42:44.019Z,101245.31
2022-08-02T09:45:15.899Z,101238.94
2022-08-02T09:47:47.413Z,101234.09
2022-08-02T09:50:19.260Z,101241.78
2022-08-02T09:52:50.813Z,101238.59
2022-08-02T09:55:22.615Z,101237.22
2022-08-02T09:57:54.171Z,101236.19
2022-08-02T10:00:43.427Z,101232.56
2022-08-02T10:03:21.457Z,101223.06
2022-08-02T10:05:56.119Z,101224.09
2022-08-02T10:08:28.981Z,101236.78
2022-08-02T10:11:00.876Z,101238.88
2022-08-02T10:13:32.484Z,101237.41
2022-08-02T10:16:04.337Z,101242.31
2022-08-02T10:18:39.296Z,101228.06
2022-08-02T10:21:12.467Z,101246.38
2022-08-02T10:23:43.959Z,101240.41
2022-08-02T10:26:16.101Z,101244.38
2022-08-02T10:28:48.255Z,101240.75
2022-08-02T10:31:20.235Z,101237.63
2022-08-02T10:33:53.356Z,101237.91
2022-08-02T10:36:27.415Z,101237.56
2022-08-02T10:38:59.293Z,101234.50
2022-08-02T10:41:30.809Z,101230.88
2022-08-02T10:44:04.075Z,101238.78
2022-08-02T10:46:35.669Z,101231.59
2022-08-02T10:49:37.418Z,101239.75
2022-08-02T10:52:01.974Z,101226.50
2022-08-02T10:54:33.770Z,101223.94
2022-08-02T10:57:05.286Z,101207.44
2022-08-02T10:59:37.154Z,101217.88
2022-08-02T11:02:08.835Z,101205.78
2022-08-02T11:04:40.820Z,101191.97
2022-08-02T11:07:14.008Z,101190.78
2022-08-02T11:09:45.968Z,101192.97
2022-08-02T11:12:17.466Z,101189.53
2022-08-02T11:14:50.235Z,101187.25
2022-08-02T11:17:22.018Z,101179.47
2022-08-02T11:19:53.881Z,101187.19
2022-08-02T11:22:26.074Z,101178.34
2022-08-02T11:24:58.228Z,101172.91
2022-08-02T11:27:31.249Z,101171.41
2022-08-02T11:30:03.100Z,101157.91
2022-08-02T11:32:36.219Z,101156.31
2022-08-02T11:35:08.085Z,101158.81
2022-08-02T11:37:39.611Z,101166.28
2022-08-02T11:40:19.323Z,101171.81
2022-08-02T11:42:53.558Z,101176.78
2022-08-02T11:45:29.417Z,101174.75
2022-08-02T11:48:01.338Z,101166.41
2022-08-02T11:50:33.308Z,101161.47
2022-08-02T11:53:05.035Z,101161.28
2022-08-02T11:55:36.885Z,101155.94
2022-08-02T11:58:11.421Z,101157.38
2022-08-02T12:00:47.280Z,101152.72
2022-08-02T12:03:19.921Z,101149.22
2022-08-02T12:06:05.454Z,101158.38
2022-08-02T12:08:38.301Z,101160.47
2022-08-02T12:11:10.145Z,101151.38
2022-08-02T12:13:41.986Z,101145.34
2022-08-02T12:16:32.855Z,101146.16
2022-08-02T12:19:20.075Z,101135.91
2022-08-02T12:21:51.562Z,101131.63
2022-08-02T12:24:23.525Z,101131.38
2022-08-02T12:26:55.568Z,101128.66
2022-08-02T12:29:57.961Z,101130.53
2022-08-02T12:32:19.059Z,101127.53
2022-08-02T12:34:51.015Z,101131.78
2022-08-02T12:37:22.536Z,101127.34
2022-08-02T12:39:54.312Z,101129.28
2022-08-02T12:42:25.867Z,101132.44
2022-08-02T12:45:00.798Z,101121.31
2022-08-02T12:47:36.171Z,101121.47
2022-08-02T12:50:08.291Z,101123.28
2022-08-02T12:52:39.805Z,101117.56
2022-08-02T12:55:11.720Z,101121.81
2022-08-02T12:57:43.218Z,101115.78
2022-08-02T13:00:14.750Z,101115.56
2022-08-02T13:02:48.150Z,101112.53
2022-08-02T13:05:20.092Z,101110.00
2022-08-02T13:07:51.716Z,101107.38
2022-08-02T13:10:23.563Z,101107.19
2022-08-02T13:12:55.058Z,101099.56
2022-08-02T13:15:49.995Z,101098.78
2022-08-02T13:18:19.023Z,101093.81
2022-08-02T13:20:50.895Z,101104.38
2022-08-02T13:23:23.263Z,101104.53
2022-08-02T13:25:55.184Z,101103.53
2022-08-02T13:28:27.471Z,101100.41
2022-08-02T13:31:14.901Z,101083.09
2022-08-02T13:33:50.942Z,101088.81
2022-08-02T13:36:22.791Z,101081.69
2022-08-02T13:38:54.297Z,101073.66
2022-08-02T13:41:26.159Z,101068.28
2022-08-02T13:44:06.165Z,101066.63
2022-08-02T13:46:45.340Z,101065.66
2022-08-02T13:49:19.770Z,101066.47
2022-08-02T13:51:51.953Z,101060.25
2022-08-02T13:54:23.935Z,101055.91
2022-08-02T13:56:55.467Z,101057.97
2022-08-02T13:59:56.823Z,101057.63
2022-08-02T14:02:19.188Z,101057.25
2022-08-02T14:04:51.049Z,101068.03
2022-08-02T14:07:22.559Z,101053.38
2022-08-02T14:09:54.465Z,101050.25
2022-08-02T14:12:25.974Z,101043.44
2022-08-02T14:14:57.504Z,101047.50
2022-08-02T14:17:29.000Z,101041.25
2022-08-02T14:20:00.550Z,101036.22
2022-08-02T14:22:32.033Z,101030.03
2022-08-02T14:25:08.996Z,101040.63
2022-08-02T14:27:41.051Z,101032.00
2022-08-02T14:30:13.012Z,101034.22
2022-08-02T14:32:44.586Z,101029.75
2022-08-02T14:35:16.437Z,101026.84
2022-08-02T14:37:47.929Z,101026.59
2022-08-02T14:40:30.918Z,101014.63
2022-08-02T14:43:03.380Z,101015.94
2022-08-02T14:45:40.991Z,101013.41
2022-08-02T14:48:13.053Z,101017.38
2022-08-02T14:50:44.853Z,101013.03
2022-08-02T14:53:16.338Z,101000.94
2022-08-02T14:55:48.252Z,101002.31
2022-08-02T14:58:19.758Z,101004.56
2022-08-02T15:00:51.263Z,100998.75
2022-08-02T15:03:24.253Z,101000.00
2022-08-02T15:05:55.898Z,100993.53
2022-08-02T15:08:27.408Z,100988.69
2022-08-02T15:10:59.249Z,100986.06
2022-08-02T15:13:30.756Z,100982.72
2022-08-02T15:16:03.649Z,100986.56
2022-08-02T15:18:35.151Z,100983.66
2022-08-02T15:21:36.545Z,100987.13
2022-08-02T15:23:58.625Z,100984.06
2022-08-02T15:26:30.582Z,100984.09
2022-08-02T15:29:02.096Z,100982.47
2022-08-02T15:31:33.855Z,100982.94
2022-08-02T15:34:06.073Z,100985.84
2022-08-02T15:36:37.594Z,100986.09
2022-08-02T15:39:09.181Z,100993.78
2022-08-02T15:41:41.036Z,100992.16
2022-08-02T15:44:13.936Z,100987.00
2022-08-02T15:46:45.788Z,100990.59
2022-08-02T15:49:17.313Z,100996.75
2022-08-02T15:51:49.299Z,100984.94
2022-08-02T15:54:20.842Z,100984.16
2022-08-02T15:56:52.658Z,100997.00
2022-08-02T15:59:24.348Z,100993.13
2022-08-02T16:01:56.328Z,100990.34
2022-08-02T16:04:27.921Z,100980.63
2022-08-02T16:07:01.509Z,100976.16
2022-08-02T16:09:33.290Z,100975.97
2022-08-02T16:12:05.173Z,100986.09
2022-08-02T16:14:36.667Z,100978.09
2022-08-02T16:17:08.586Z,100968.00
2022-08-02T16:19:49.090Z,100976.41
2022-08-02T16:22:21.715Z,100972.34
2022-08-02T16:24:53.264Z,100963.72
2022-08-02T16:27:25.100Z,100963.66
2022-08-02T16:29:56.605Z,100965.06
2022-08-02T16:32:28.151Z,100963.38
2022-08-02T16:35:07.092Z,100962.66
2022-08-02T16:37:51.829Z,100962.59
2022-08-02T16:40:24.282Z,100964.63
2022-08-02T16:42:56.105Z,100960.34
2022-08-02T16:45:27.645Z,100962.13
2022-08-02T16:48:03.684Z,100961.78
2022-08-02T16:50:37.690Z,100966.34
2022-08-02T16:53:11.199Z,100962.56
2022-08-02T16:55:51.917Z,100967.38
2022-08-02T16:58:24.960Z,100958.97
2022-08-02T17:00:56.946Z,100955.00
2022-08-02T17:03:55.538Z,100957.50
2022-08-02T17:06:21.141Z,100962.19
2022-08-02T17:08:57.927Z,100952.34
2022-08-02T17:11:31.017Z,100953.63
2022-08-02T17:14:02.710Z,100945.69
2022-08-02T17:16:35.618Z,100952.13
2022-08-02T17:19:07.787Z,100950.31
2022-08-02T17:21:39.664Z,100950.66
2022-08-02T17:24:11.182Z,100953.09
2022-08-02T17:26:43.696Z,100951.19
2022-08-02T17:29:17.764Z,100963.13
2022-08-02T17:32:12.532Z,100955.00
2022-08-02T17:34:56.354Z,100960.50
2022-08-02T17:37:32.226Z,100954.03
2022-08-02T17:40:04.499Z,100961.16
2022-08-02T17:42:36.411Z,100962.75
2022-08-02T17:45:16.771Z,100967.09
2022-08-02T17:48:04.039Z,100972.44
2022-08-02T17:50:37.278Z,100985.22
2022-08-02T17:53:09.376Z,100969.78
2022-08-02T17:55:42.666Z,100980.53
2022-08-02T17:58:33.196Z,100976.56
2022-08-02T18:01:05.472Z,100972.56
2022-08-02T18:03:55.349Z,100979.28
2022-08-02T18:06:27.367Z,100968.50
2022-08-02T18:08:58.884Z,100973.00
2022-08-02T18:11:52.495Z,100978.66
2022-08-02T18:14:22.455Z,100988.19
2022-08-02T18:16:56.314Z,100984.84
2022-08-02T18:19:33.213Z,100985.34
2022-08-02T18:22:15.742Z,100984.03
2022-08-02T18:24:47.965Z,100984.38
2022-08-02T18:27:21.829Z,100985.19
2022-08-02T18:30:04.361Z,100795.13
2022-08-02T18:33:01.154Z,100992.56
2022-08-02T18:35:29.438Z,101005.75
2022-08-02T18:38:03.627Z,101002.59
2022-08-02T18:40:35.486Z,101001.78
2022-08-02T18:43:07.832Z,101004.81
2022-08-02T18:46:05.867Z,101001.69
2022-08-02T18:48:31.319Z,101004.22
2022-08-02T18:51:03.261Z,100995.50
2022-08-02T18:53:41.477Z,100994.59
2022-08-02T18:56:20.224Z,100994.56
2022-08-02T18:58:57.283Z,100995.81
2022-08-02T19:01:33.562Z,100998.00
2022-08-02T19:04:08.634Z,101000.16
2022-08-02T19:06:40.633Z,100997.88
2022-08-02T19:09:13.913Z,100998.63
2022-08-02T19:11:47.478Z,101004.63
2022-08-02T19:14:27.846Z,101007.06
2022-08-02T19:17:16.067Z,100996.22
2022-08-02T19:19:52.108Z,100997.25
2022-08-02T19:22:27.436Z,100998.25
2022-08-02T19:25:01.779Z,100995.16
2022-08-02T19:27:34.529Z,100999.41
2022-08-02T19:30:07.726Z,100998.09
2022-08-02T19:32:59.385Z,101000.34
2022-08-02T19:35:34.603Z,101004.16
2022-08-02T19:38:06.897Z,101000.41
2022-08-02T19:40:38.983Z,101003.56
2022-08-02T19:44:24.791Z,100998.78
2022-08-02T19:46:03.407Z,100998.81
2022-08-02T19:48:34.933Z,100993.66
2022-08-02T19:51:07.950Z,101001.53
2022-08-02T19:53:47.005Z,100999.41
2022-08-02T19:56:25.105Z,101008.78
2022-08-02T19:59:00.322Z,101006.38
2022-08-02T20:01:38.797Z,101002.94
2022-08-02T20:04:12.929Z,101007.66
2022-08-02T20:06:47.662Z,101010.16
2022-08-02T20:09:21.244Z,101015.41
2022-08-02T20:11:54.707Z,101013.59
2022-08-02T20:14:27.976Z,101014.78
2022-08-02T20:16:59.926Z,101015.97
2022-08-02T20:19:31.766Z,101017.16
2022-08-02T20:22:07.510Z,101011.78
2022-08-02T20:24:42.104Z,101006.72
2022-08-02T20:27:17.032Z,101003.28
2022-08-02T20:29:55.462Z,101000.16
2022-08-02T20:32:27.290Z,101006.19
2022-08-02T20:34:59.971Z,101000.81
2022-08-02T20:37:59.343Z,101017.22
2022-08-02T20:40:24.167Z,101017.03
2022-08-02T20:42:56.056Z,101017.88
2022-08-02T20:45:28.438Z,101021.78
2022-08-02T20:48:05.520Z,101020.47
2022-08-02T20:50:49.250Z,101022.38
2022-08-02T20:53:24.151Z,101025.69
2022-08-02T20:55:57.789Z,101020.31
2022-08-02T20:58:31.098Z,101020.06
2022-08-02T21:01:02.736Z,101022.06
2022-08-02T21:03:39.452Z,101014.78
2022-08-02T21:06:15.050Z,101018.38
2022-08-02T21:08:48.873Z,101020.84
2022-08-02T21:11:20.693Z,101027.25
2022-08-02T21:14:06.518Z,101023.28
2022-08-02T21:16:41.083Z,101022.09
2022-08-02T21:19:12.752Z,101021.66
2022-08-02T21:21:45.255Z,101026.59
2022-08-02T21:24:17.586Z,101018.22
2022-08-02T21:26:56.484Z,101026.94
2022-08-02T21:29:28.178Z,101024.00
2022-08-02T21:32:05.249Z,101024.81
2022-08-02T21:34:36.816Z,101016.75
2022-08-02T21:37:10.017Z,101024.91
2022-08-02T21:39:41.840Z,101029.81
2022-08-02T21:42:16.307Z,101020.94
2022-08-02T21:44:54.275Z,101036.69
2022-08-02T21:47:26.256Z,101028.38
2022-08-02T21:50:09.466Z,101033.03
2022-08-02T21:52:52.449Z,101034.16
2022-08-02T21:56:00.270Z,101029.81
2022-08-02T21:58:15.871Z,101033.63
2022-08-02T22:00:51.611Z,101028.00
2022-08-02T22:03:23.827Z,101028.25
2022-08-02T22:05:55.358Z,101035.88
2022-08-02T22:08:27.242Z,101034.53
2022-08-02T22:11:03.210Z,101034.88
2022-08-02T22:13:38.611Z,101038.75
2022-08-02T22:16:27.447Z,101048.28
2022-08-02T22:18:59.675Z,101044.19
2022-08-02T22:21:33.653Z,101044.50
2022-08-02T22:24:30.286Z,101045.06
2022-08-02T22:27:02.570Z,101043.72
2022-08-02T22:29:34.075Z,101046.16
2022-08-02T22:32:06.842Z,101045.34
2022-08-02T22:34:52.199Z,101046.72
2022-08-02T22:38:14.804Z,101052.47
2022-08-02T22:40:15.838Z,101055.88
2022-08-02T22:42:49.048Z,101055.91
2022-08-02T22:45:20.829Z,101056.19
2022-08-02T22:47:52.656Z,101061.84
2022-08-02T22:50:25.945Z,101057.28
2022-08-02T22:52:57.902Z,101065.13
2022-08-02T22:55:32.588Z,101061.31
2022-08-02T22:58:04.528Z,101068.91
2022-08-02T23:00:36.796Z,101065.94
2022-08-02T23:03:08.907Z,101061.84
2022-08-02T23:05:40.545Z,101066.47
2022-08-02T23:08:12.612Z,101077.91
2022-08-02T23:10:44.167Z,101076.03
2022-08-02T23:13:16.016Z,101079.59
2022-08-02T23:16:06.196Z,101075.78
2022-08-02T23:18:56.659Z,101075.25
2022-08-02T23:22:00.837Z,101074.97
2022-08-02T23:24:24.718Z,101070.13
2022-08-02T23:26:56.221Z,101067.44
2022-08-02T23:29:27.757Z,101070.69
2022-08-02T23:31:59.293Z,101068.53
2022-08-02T23:34:32.810Z,101069.59
2022-08-02T23:37:04.652Z,101069.88
2022-08-02T23:39:36.139Z,101067.69
2022-08-02T23:42:08.113Z,101075.28
2022-08-02T23:44:39.599Z,101071.22
2022-08-02T23:47:11.537Z,101067.50
2022-08-02T23:49:43.117Z,101068.56
2022-08-02T23:52:15.310Z,101067.47
2022-08-02T23:54:47.009Z,101067.72
2022-08-02T23:57:20.026Z,101065.84
2022-08-02T23:59:52.988Z,101065.31
